Surfside, California
Current Conditions -  °F | °C
As of 4:58 PM on Sunday 23 Nov 2014 (Local Time) from KSLI Reporting Station
Clear Clear  
Wind Chill: 68°   Ceiling: Unl
Heat Index: 68°   Visibility: 10mi
Dew Point: 44°   Wind: 5mph
Humidity: 41%   Direction: 200°SSW
Pressure: 30.08"   Gusts: NA
Location:  33.73°N, 118.08°W
Report Text: KSLI 240058Z AUTO 20004KT 10SM CLR 20/06 A3008 RMK AO2 SLP189 T02020064
Loading
Personal Weather Stations






























Interactive Weather Map New forecast layout! Learn more

10-Day Weather Forecast

Advertisements
Track Severe Weather on mobile